sensor_id;sensor_type;location;lat;lon;timestamp;pressure;altitude;pressure_sealevel;temperature;humidity
44453;BME280;30155;52.164;21.236;2023-05-23T00:04:34;100551.39;;;10.53;64.23
44453;BME280;30155;52.164;21.236;2023-05-23T00:09:28;100548.04;;;10.48;64.47
44453;BME280;30155;52.164;21.236;2023-05-23T00:14:22;100546.64;;;10.48;64.53
44453;BME280;30155;52.164;21.236;2023-05-23T00:19:15;100548.51;;;10.45;64.69
44453;BME280;30155;52.164;21.236;2023-05-23T00:24:08;100544.09;;;10.39;64.72
44453;BME280;30155;52.164;21.236;2023-05-23T00:29:02;100537.23;;;10.34;64.91
44453;BME280;30155;52.164;21.236;2023-05-23T00:33:55;100534.27;;;10.22;64.79
44453;BME280;30155;52.164;21.236;2023-05-23T00:38:48;100538.23;;;10.10;65.01
44453;BME280;30155;52.164;21.236;2023-05-23T00:43:42;100537.48;;;10.06;65.13
44453;BME280;30155;52.164;21.236;2023-05-23T00:48:35;100538.98;;;10.02;65.23
44453;BME280;30155;52.164;21.236;2023-05-23T00:53:29;100532.88;;;10.00;65.40
44453;BME280;30155;52.164;21.236;2023-05-23T00:58:23;100535.01;;;9.91;65.63
44453;BME280;30155;52.164;21.236;2023-05-23T01:03:16;100530.39;;;9.85;65.69
44453;BME280;30155;52.164;21.236;2023-05-23T01:08:10;100539.90;;;9.74;65.66
44453;BME280;30155;52.164;21.236;2023-05-23T01:13:45;100538.45;;;9.71;65.72
44453;BME280;30155;52.164;21.236;2023-05-23T01:18:46;100542.16;;;9.65;65.90
44453;BME280;30155;52.164;21.236;2023-05-23T01:24:02;100545.11;;;9.56;66.09
44453;BME280;30155;52.164;21.236;2023-05-23T01:29:03;100542.63;;;9.53;66.13
44453;BME280;30155;52.164;21.236;2023-05-23T01:34:01;100543.05;;;9.47;66.49
44453;BME280;30155;52.164;21.236;2023-05-23T01:38:54;100542.30;;;9.45;66.59
44453;BME280;30155;52.164;21.236;2023-05-23T01:43:47;100540.89;;;9.43;66.45
44453;BME280;30155;52.164;21.236;2023-05-23T01:48:40;100534.62;;;9.41;66.62
44453;BME280;30155;52.164;21.236;2023-05-23T01:53:34;100532.31;;;9.37;66.54
44453;BME280;30155;52.164;21.236;2023-05-23T01:58:28;100530.03;;;9.27;66.73
44453;BME280;30155;52.164;21.236;2023-05-23T02:03:21;100524.91;;;9.22;67.07
44453;BME280;30155;52.164;21.236;2023-05-23T02:08:14;100526.16;;;9.14;66.95
44453;BME280;30155;52.164;21.236;2023-05-23T02:13:07;100520.41;;;9.12;67.43
44453;BME280;30155;52.164;21.236;2023-05-23T02:18:00;100516.10;;;9.12;67.20
44453;BME280;30155;52.164;21.236;2023-05-23T02:22:54;100511.17;;;9.08;67.35
44453;BME280;30155;52.164;21.236;2023-05-23T02:27:47;100509.02;;;9.04;67.50
44453;BME280;30155;52.164;21.236;2023-05-23T02:32:40;100506.73;;;9.02;67.57
44453;BME280;30155;52.164;21.236;2023-05-23T02:37:33;100501.42;;;8.96;67.69
44453;BME280;30155;52.164;21.236;2023-05-23T02:42:27;100495.38;;;8.88;67.79
44453;BME280;30155;52.164;21.236;2023-05-23T02:47:21;100493.85;;;8.89;68.03
44453;BME280;30155;52.164;21.236;2023-05-23T02:52:14;100487.58;;;8.87;67.94
44453;BME280;30155;52.164;21.236;2023-05-23T02:57:07;100489.66;;;8.88;68.19
44453;BME280;30155;52.164;21.236;2023-05-23T03:02:02;100491.88;;;8.94;68.25
44453;BME280;30155;52.164;21.236;2023-05-23T03:06:55;100490.91;;;8.97;68.20
44453;BME280;30155;52.164;21.236;2023-05-23T03:11:50;100489.06;;;9.01;68.30
44453;BME280;30155;52.164;21.236;2023-05-23T03:16:43;100485.87;;;9.05;68.14
44453;BME280;30155;52.164;21.236;2023-05-23T03:21:37;100487.13;;;9.08;68.11
44453;BME280;30155;52.164;21.236;2023-05-23T03:26:31;100489.27;;;9.10;68.33
44453;BME280;30155;52.164;21.236;2023-05-23T03:31:24;100492.84;;;9.17;68.46
44453;BME280;30155;52.164;21.236;2023-05-23T03:36:17;100488.66;;;9.25;68.71
44453;BME280;30155;52.164;21.236;2023-05-23T03:41:10;100482.46;;;9.55;68.61
44453;BME280;30155;52.164;21.236;2023-05-23T03:46:03;100485.55;;;9.75;68.39
44453;BME280;30155;52.164;21.236;2023-05-23T03:50:56;100484.31;;;9.94;68.39
44453;BME280;30155;52.164;21.236;2023-05-23T03:55:49;100481.86;;;10.03;68.58
44453;BME280;30155;52.164;21.236;2023-05-23T04:00:45;100478.83;;;10.10;68.53
44453;BME280;30155;52.164;21.236;2023-05-23T04:05:39;100475.60;;;10.14;68.87
44453;BME280;30155;52.164;21.236;2023-05-23T04:10:33;100470.68;;;10.21;69.15
44453;BME280;30155;52.164;21.236;2023-05-23T04:15:27;100468.58;;;10.30;69.03
44453;BME280;30155;52.164;21.236;2023-05-23T04:20:23;100465.63;;;10.41;69.48
44453;BME280;30155;52.164;21.236;2023-05-23T04:25:16;100465.91;;;10.50;69.47
44453;BME280;30155;52.164;21.236;2023-05-23T04:30:22;100464.80;;;10.56;69.45
44453;BME280;30155;52.164;21.236;2023-05-23T04:35:15;100465.42;;;10.65;69.71
44453;BME280;30155;52.164;21.236;2023-05-23T04:40:10;100464.33;;;10.76;69.79
44453;BME280;30155;52.164;21.236;2023-05-23T04:45:11;100460.65;;;10.87;69.76
44453;BME280;30155;52.164;21.236;2023-05-23T04:50:22;100459.77;;;11.00;69.86
44453;BME280;30155;52.164;21.236;2023-05-23T04:55:15;100460.82;;;11.17;69.89
44453;BME280;30155;52.164;21.236;2023-05-23T05:00:09;100453.53;;;11.35;69.80
44453;BME280;30155;52.164;21.236;2023-05-23T05:05:04;100454.23;;;11.53;69.75
44453;BME280;30155;52.164;21.236;2023-05-23T05:09:58;100451.61;;;11.72;69.74
44453;BME280;30155;52.164;21.236;2023-05-23T05:14:52;100448.50;;;11.95;69.84
44453;BME280;30155;52.164;21.236;2023-05-23T05:19:46;100441.88;;;12.16;69.79
44453;BME280;30155;52.164;21.236;2023-05-23T05:24:41;100442.51;;;12.37;69.67
44453;BME280;30155;52.164;21.236;2023-05-23T05:29:35;100438.26;;;12.56;69.51
44453;BME280;30155;52.164;21.236;2023-05-23T05:34:28;100436.96;;;12.78;69.06
44453;BME280;30155;52.164;21.236;2023-05-23T05:39:23;100432.33;;;13.02;68.86
44453;BME280;30155;52.164;21.236;2023-05-23T05:44:18;100436.40;;;13.29;68.57
44453;BME280;30155;52.164;21.236;2023-05-23T05:49:11;100435.05;;;13.56;67.71
44453;BME280;30155;52.164;21.236;2023-05-23T05:54:05;100428.56;;;13.91;67.39
44453;BME280;30155;52.164;21.236;2023-05-23T05:58:59;100430.27;;;14.19;67.01
44453;BME280;30155;52.164;21.236;2023-05-23T06:03:52;100426.88;;;14.47;66.11
44453;BME280;30155;52.164;21.236;2023-05-23T06:08:46;100420.41;;;14.92;65.32
44453;BME280;30155;52.164;21.236;2023-05-23T06:13:40;100414.93;;;15.74;63.71
44453;BME280;30155;52.164;21.236;2023-05-23T06:18:33;100410.95;;;16.25;62.30
44453;BME280;30155;52.164;21.236;2023-05-23T06:23:26;100406.58;;;16.68;61.15
44453;BME280;30155;52.164;21.236;2023-05-23T06:28:19;100394.98;;;18.55;57.55
44453;BME280;30155;52.164;21.236;2023-05-23T06:33:12;100395.04;;;20.29;54.71
44453;BME280;30155;52.164;21.236;2023-05-23T06:38:07;100393.77;;;20.98;53.29
44453;BME280;30155;52.164;21.236;2023-05-23T06:42:59;100388.35;;;21.62;50.13
44453;BME280;30155;52.164;21.236;2023-05-23T06:48:03;100385.42;;;21.27;51.32
44453;BME280;30155;52.164;21.236;2023-05-23T06:52:57;100381.65;;;21.07;50.83
44453;BME280;30155;52.164;21.236;2023-05-23T06:57:50;100374.28;;;21.59;49.15
44453;BME280;30155;52.164;21.236;2023-05-23T07:02:44;100368.02;;;22.09;47.56
44453;BME280;30155;52.164;21.236;2023-05-23T07:07:42;100363.33;;;21.77;46.75
44453;BME280;30155;52.164;21.236;2023-05-23T07:12:35;100353.27;;;21.97;46.70
44453;BME280;30155;52.164;21.236;2023-05-23T07:17:28;100349.19;;;22.58;45.38
44453;BME280;30155;52.164;21.236;2023-05-23T07:22:22;100345.92;;;24.69;42.53
44453;BME280;30155;52.164;21.236;2023-05-23T07:27:15;100338.00;;;26.13;40.46
44453;BME280;30155;52.164;21.236;2023-05-23T07:32:09;100336.73;;;26.10;39.44
44453;BME280;30155;52.164;21.236;2023-05-23T07:37:02;100332.85;;;26.46;38.01
44453;BME280;30155;52.164;21.236;2023-05-23T07:42:01;100337.40;;;26.63;37.05
44453;BME280;30155;52.164;21.236;2023-05-23T07:46:55;100333.65;;;28.01;36.05
44453;BME280;30155;52.164;21.236;2023-05-23T07:51:49;100333.52;;;27.94;35.50
44453;BME280;30155;52.164;21.236;2023-05-23T07:56:42;100323.52;;;29.13;34.29
44453;BME280;30155;52.164;21.236;2023-05-23T08:01:36;100318.49;;;29.02;33.42
44453;BME280;30155;52.164;21.236;2023-05-23T08:06:30;100313.63;;;28.51;32.96
44453;BME280;30155;52.164;21.236;2023-05-23T08:11:27;100312.46;;;28.44;32.52
44453;BME280;30155;52.164;21.236;2023-05-23T08:16:21;100304.98;;;29.93;30.88
44453;BME280;30155;52.164;21.236;2023-05-23T08:21:14;100299.25;;;32.68;28.86
44453;BME280;30155;52.164;21.236;2023-05-23T08:26:08;100296.79;;;33.81;27.18
44453;BME280;30155;52.164;21.236;2023-05-23T08:31:02;100304.21;;;31.50;28.62
44453;BME280;30155;52.164;21.236;2023-05-23T08:35:55;100298.61;;;31.13;27.53
44453;BME280;30155;52.164;21.236;2023-05-23T08:40:49;100293.09;;;33.17;25.49
44453;BME280;30155;52.164;21.236;2023-05-23T08:45:44;100288.55;;;34.86;24.07
44453;BME280;30155;52.164;21.236;2023-05-23T08:50:39;100283.23;;;34.25;24.82
44453;BME280;30155;52.164;21.236;2023-05-23T08:55:34;100289.61;;;31.83;25.86
44453;BME280;30155;52.164;21.236;2023-05-23T09:00:29;100285.38;;;30.18;27.20
44453;BME280;30155;52.164;21.236;2023-05-23T09:05:25;100278.55;;;29.02;27.79
44453;BME280;30155;52.164;21.236;2023-05-23T09:10:19;100275.34;;;28.25;28.57
44453;BME280;30155;52.164;21.236;2023-05-23T09:15:13;100276.28;;;29.13;27.92
44453;BME280;30155;52.164;21.236;2023-05-23T09:20:13;100270.81;;;32.50;25.65
44453;BME280;30155;52.164;21.236;2023-05-23T09:25:12;100260.98;;;32.94;24.80
44453;BME280;30155;52.164;21.236;2023-05-23T09:30:07;100268.30;;;32.42;25.58
44453;BME280;30155;52.164;21.236;2023-05-23T09:35:02;100266.00;;;33.82;23.57
44453;BME280;30155;52.164;21.236;2023-05-23T09:39:58;100272.98;;;35.59;22.15
44453;BME280;30155;52.164;21.236;2023-05-23T09:44:52;100268.30;;;36.04;21.78
44453;BME280;30155;52.164;21.236;2023-05-23T09:49:45;100269.98;;;36.60;20.70
44453;BME280;30155;52.164;21.236;2023-05-23T09:54:39;100258.77;;;36.48;20.18
44453;BME280;30155;52.164;21.236;2023-05-23T09:59:33;100253.83;;;36.90;18.90
44453;BME280;30155;52.164;21.236;2023-05-23T10:04:30;100256.79;;;37.43;19.61
44453;BME280;30155;52.164;21.236;2023-05-23T10:09:24;100252.90;;;37.71;19.34
44453;BME280;30155;52.164;21.236;2023-05-23T10:14:18;100246.96;;;36.90;19.56
44453;BME280;30155;52.164;21.236;2023-05-23T10:24:34;100245.65;;;37.18;19.23
44453;BME280;30155;52.164;21.236;2023-05-23T10:29:28;100245.67;;;37.31;19.10
44453;BME280;30155;52.164;21.236;2023-05-23T10:44:41;100240.16;;;34.31;21.05
44453;BME280;30155;52.164;21.236;2023-05-23T10:49:42;100237.31;;;35.26;20.82
44453;BME280;30155;52.164;21.236;2023-05-23T10:54:41;100241.32;;;35.52;20.57
44453;BME280;30155;52.164;21.236;2023-05-23T10:59:36;100226.63;;;34.23;20.59
44453;BME280;30155;52.164;21.236;2023-05-23T11:04:30;100231.44;;;33.54;21.59
44453;BME280;30155;52.164;21.236;2023-05-23T11:09:23;100231.64;;;32.58;22.33
44453;BME280;30155;52.164;21.236;2023-05-23T11:14:16;100228.91;;;31.95;22.34
44453;BME280;30155;52.164;21.236;2023-05-23T11:24:11;100217.92;;;31.27;23.33
44453;BME280;30155;52.164;21.236;2023-05-23T11:29:08;100218.52;;;30.96;23.50
44453;BME280;30155;52.164;21.236;2023-05-23T11:34:01;100213.09;;;30.66;23.51
44453;BME280;30155;52.164;21.236;2023-05-23T11:38:54;100204.98;;;30.03;24.16
44453;BME280;30155;52.164;21.236;2023-05-23T11:43:49;100207.25;;;29.35;24.51
44453;BME280;30155;52.164;21.236;2023-05-23T11:48:47;100204.23;;;29.20;25.07
44453;BME280;30155;52.164;21.236;2023-05-23T11:53:42;100194.59;;;29.09;25.76
44453;BME280;30155;52.164;21.236;2023-05-23T11:58:37;100194.00;;;29.12;24.75
44453;BME280;30155;52.164;21.236;2023-05-23T12:03:31;100189.79;;;29.22;25.27
44453;BME280;30155;52.164;21.236;2023-05-23T12:08:24;100189.30;;;29.42;25.00
44453;BME280;30155;52.164;21.236;2023-05-23T12:13:18;100186.98;;;29.44;25.18
44453;BME280;30155;52.164;21.236;2023-05-23T12:18:12;100188.50;;;29.41;25.58
44453;BME280;30155;52.164;21.236;2023-05-23T12:23:05;100176.73;;;29.61;25.25
44453;BME280;30155;52.164;21.236;2023-05-23T12:27:58;100180.67;;;29.78;25.31
44453;BME280;30155;52.164;21.236;2023-05-23T12:32:52;100174.42;;;29.88;25.38
44453;BME280;30155;52.164;21.236;2023-05-23T12:37:45;100165.61;;;29.79;24.70
44453;BME280;30155;52.164;21.236;2023-05-23T12:42:51;100165.02;;;29.64;24.59
44453;BME280;30155;52.164;21.236;2023-05-23T12:47:45;100159.15;;;29.69;24.89
44453;BME280;30155;52.164;21.236;2023-05-23T12:52:46;100166.55;;;29.38;24.70
44453;BME280;30155;52.164;21.236;2023-05-23T12:57:47;100157.95;;;28.81;25.41
44453;BME280;30155;52.164;21.236;2023-05-23T13:03:39;100154.65;;;29.00;25.90
44453;BME280;30155;52.164;21.236;2023-05-23T13:14:22;100150.85;;;27.93;26.32
44453;BME280;30155;52.164;21.236;2023-05-23T13:19:17;100156.02;;;27.28;26.66
44453;BME280;30155;52.164;21.236;2023-05-23T13:24:14;100146.10;;;26.97;27.14
44453;BME280;30155;52.164;21.236;2023-05-23T13:29:09;100142.88;;;27.13;27.24
44453;BME280;30155;52.164;21.236;2023-05-23T13:34:03;100134.86;;;27.54;27.30
44453;BME280;30155;52.164;21.236;2023-05-23T13:38:58;100130.11;;;27.84;26.60
44453;BME280;30155;52.164;21.236;2023-05-23T13:44:15;100130.59;;;28.31;26.69
44453;BME280;30155;52.164;21.236;2023-05-23T13:49:14;100132.59;;;28.56;25.96
44453;BME280;30155;52.164;21.236;2023-05-23T13:54:25;100124.74;;;28.69;26.27
44453;BME280;30155;52.164;21.236;2023-05-23T13:59:36;100123.77;;;28.70;26.59
44453;BME280;30155;52.164;21.236;2023-05-23T14:05:02;100123.75;;;28.54;26.18
44453;BME280;30155;52.164;21.236;2023-05-23T14:11:00;100113.73;;;28.49;26.09
44453;BME280;30155;52.164;21.236;2023-05-23T14:24:13;100115.60;;;28.43;25.90
44453;BME280;30155;52.164;21.236;2023-05-23T14:30:39;100111.27;;;28.46;25.80
44453;BME280;30155;52.164;21.236;2023-05-23T14:36:40;100107.44;;;28.53;26.12
44453;BME280;30155;52.164;21.236;2023-05-23T14:42:36;100106.18;;;28.53;25.90
44453;BME280;30155;52.164;21.236;2023-05-23T15:02:02;100101.48;;;28.14;25.75
44453;BME280;30155;52.164;21.236;2023-05-23T15:21:00;100088.07;;;27.53;25.56
44453;BME280;30155;52.164;21.236;2023-05-23T15:34:09;100086.00;;;27.33;25.70
44453;BME280;30155;52.164;21.236;2023-05-23T15:40:06;100086.07;;;27.37;26.21
44453;BME280;30155;52.164;21.236;2023-05-23T15:46:14;100082.41;;;27.27;26.15
44453;BME280;30155;52.164;21.236;2023-05-23T15:58:44;100072.14;;;27.00;26.42
44453;BME280;30155;52.164;21.236;2023-05-23T16:11:48;100065.02;;;25.60;27.89
44453;BME280;30155;52.164;21.236;2023-05-23T16:18:07;100060.80;;;25.53;28.37
44453;BME280;30155;52.164;21.236;2023-05-23T16:24:35;100054.04;;;25.75;28.46
44453;BME280;30155;52.164;21.236;2023-05-23T17:09:50;100070.55;;;24.20;32.39
44453;BME280;30155;52.164;21.236;2023-05-23T17:16:01;100069.63;;;23.88;33.20
44453;BME280;30155;52.164;21.236;2023-05-23T17:35:37;100069.54;;;22.90;34.81
44453;BME280;30155;52.164;21.236;2023-05-23T17:42:17;100075.86;;;22.62;36.11
44453;BME280;30155;52.164;21.236;2023-05-23T17:54:21;100079.38;;;22.16;37.37
44453;BME280;30155;52.164;21.236;2023-05-23T18:13:42;100088.59;;;21.42;39.68
44453;BME280;30155;52.164;21.236;2023-05-23T18:19:36;100092.05;;;21.20;40.79
44453;BME280;30155;52.164;21.236;2023-05-23T18:26:05;100091.13;;;20.92;41.19
44453;BME280;30155;52.164;21.236;2023-05-23T18:37:58;100100.91;;;20.47;42.15
44453;BME280;30155;52.164;21.236;2023-05-23T18:44:28;100107.27;;;20.30;42.84
44453;BME280;30155;52.164;21.236;2023-05-23T18:51:14;100111.11;;;20.16;43.17
44453;BME280;30155;52.164;21.236;2023-05-23T18:57:03;100115.27;;;19.95;43.63
44453;BME280;30155;52.164;21.236;2023-05-23T19:01:55;100118.35;;;19.81;43.98
44453;BME280;30155;52.164;21.236;2023-05-23T19:06:49;100122.40;;;19.68;44.38
44453;BME280;30155;52.164;21.236;2023-05-23T19:11:41;100129.54;;;19.58;44.80
44453;BME280;30155;52.164;21.236;2023-05-23T19:16:32;100128.38;;;19.44;45.31
44453;BME280;30155;52.164;21.236;2023-05-23T19:21:26;100133.11;;;19.32;45.26
44453;BME280;30155;52.164;21.236;2023-05-23T19:26:18;100135.55;;;19.27;45.55
44453;BME280;30155;52.164;21.236;2023-05-23T19:31:11;100140.27;;;19.21;46.05
44453;BME280;30155;52.164;21.236;2023-05-23T19:36:04;100144.29;;;19.09;46.30
44453;BME280;30155;52.164;21.236;2023-05-23T19:41:09;100148.10;;;18.98;46.73
44453;BME280;30155;52.164;21.236;2023-05-23T19:46:05;100152.06;;;18.88;46.81
44453;BME280;30155;52.164;21.236;2023-05-23T19:50:58;100154.02;;;18.73;46.96
44453;BME280;30155;52.164;21.236;2023-05-23T19:56:20;100149.30;;;18.64;47.27
44453;BME280;30155;52.164;21.236;2023-05-23T20:22:20;100150.02;;;18.05;49.16
44453;BME280;30155;52.164;21.236;2023-05-23T20:34:50;100165.30;;;17.87;49.66
44453;BME280;30155;52.164;21.236;2023-05-23T20:40:40;100168.30;;;17.86;50.05
44453;BME280;30155;52.164;21.236;2023-05-23T20:45:34;100168.13;;;17.77;50.59
44453;BME280;30155;52.164;21.236;2023-05-23T20:50:28;100170.30;;;17.66;51.04
44453;BME280;30155;52.164;21.236;2023-05-23T20:55:22;100170.51;;;17.55;51.13
44453;BME280;30155;52.164;21.236;2023-05-23T21:00:28;100168.34;;;17.41;51.60
44453;BME280;30155;52.164;21.236;2023-05-23T21:05:19;100168.42;;;17.28;52.06
44453;BME280;30155;52.164;21.236;2023-05-23T21:10:11;100167.05;;;17.17;52.38
44453;BME280;30155;52.164;21.236;2023-05-23T21:15:05;100166.20;;;17.07;52.77
44453;BME280;30155;52.164;21.236;2023-05-23T21:19:59;100163.45;;;16.95;52.90
44453;BME280;30155;52.164;21.236;2023-05-23T21:24:51;100159.73;;;16.86;53.35
44453;BME280;30155;52.164;21.236;2023-05-23T21:29:43;100161.96;;;16.77;53.57
44453;BME280;30155;52.164;21.236;2023-05-23T21:34:36;100163.21;;;16.66;54.23
44453;BME280;30155;52.164;21.236;2023-05-23T21:39:30;100163.13;;;16.59;54.51
44453;BME280;30155;52.164;21.236;2023-05-23T21:44:40;100161.08;;;16.57;55.25
44453;BME280;30155;52.164;21.236;2023-05-23T21:49:32;100164.81;;;16.54;56.12
44453;BME280;30155;52.164;21.236;2023-05-23T21:54:25;100170.46;;;16.50;55.94
44453;BME280;30155;52.164;21.236;2023-05-23T21:59:23;100172.82;;;16.46;56.09
44453;BME280;30155;52.164;21.236;2023-05-23T22:04:15;100173.34;;;16.46;56.88
44453;BME280;30155;52.164;21.236;2023-05-23T22:09:09;100172.65;;;16.45;56.66
44453;BME280;30155;52.164;21.236;2023-05-23T22:14:04;100173.77;;;16.41;57.41
44453;BME280;30155;52.164;21.236;2023-05-23T22:19:06;100170.86;;;16.36;57.40
44453;BME280;30155;52.164;21.236;2023-05-23T22:24:09;100169.82;;;16.34;57.38
44453;BME280;30155;52.164;21.236;2023-05-23T22:29:11;100170.35;;;16.34;57.71
44453;BME280;30155;52.164;21.236;2023-05-23T22:34:12;100164.27;;;16.32;56.96
44453;BME280;30155;52.164;21.236;2023-05-23T22:39:18;100169.35;;;16.32;57.56
44453;BME280;30155;52.164;21.236;2023-05-23T22:44:10;100168.83;;;16.32;57.84
44453;BME280;30155;52.164;21.236;2023-05-23T22:49:29;100170.08;;;16.30;57.40
44453;BME280;30155;52.164;21.236;2023-05-23T23:00:13;100169.27;;;16.25;57.53
44453;BME280;30155;52.164;21.236;2023-05-23T23:05:09;100169.32;;;16.22;57.61
44453;BME280;30155;52.164;21.236;2023-05-23T23:10:10;100171.11;;;16.19;57.79
44453;BME280;30155;52.164;21.236;2023-05-23T23:15:14;100164.71;;;16.15;57.87
44453;BME280;30155;52.164;21.236;2023-05-23T23:21:07;100160.54;;;16.13;57.82
44453;BME280;30155;52.164;21.236;2023-05-23T23:25:58;100158.65;;;16.11;57.82
44453;BME280;30155;52.164;21.236;2023-05-23T23:30:49;100152.40;;;16.07;58.25
44453;BME280;30155;52.164;21.236;2023-05-23T23:35:42;100153.85;;;16.05;58.27
44453;BME280;30155;52.164;21.236;2023-05-23T23:40:36;100149.52;;;16.03;58.31
44453;BME280;30155;52.164;21.236;2023-05-23T23:45:27;100146.90;;;16.00;58.42
44453;BME280;30155;52.164;21.236;2023-05-23T23:50:19;100144.00;;;15.96;58.54
44453;BME280;30155;52.164;21.236;2023-05-23T23:55:12;100143.85;;;15.94;58.62
